Observations for EAST MIDLANDS, United Kingdom (EGNX)

EGNX 280520Z 04008KT 9000 -RA SCT003 BKN004 13/13 Q1000 RERA
EGNX 280450Z 05010KT 8000 RA SCT003 BKN004 13/13 Q1000  
EGNX 280420Z 05011KT 7000 RA SCT003 BKN004 13/13 Q1000  
EGNX 280350Z 05010KT 9999 -RA SCT003 BKN004 13/13 Q1000 RERA
EGNX 280320Z 04008KT 350V080 6000 RA SCT003 BKN004 13/13 Q1001  
EGNX 280250Z 04007KT 010V070 6000 RA SCT003 BKN004 13/13 Q1001  
EGNX 280220Z 04007KT 010V090 6000 RA SCT003 BKN004 13/13 Q1001  
EGNX 280150Z 05008KT 5000 RA SCT003 BKN004 13/13 Q1002  
EGNX 280120Z 05008KT 5000 RA SCT003 BKN004 13/13 Q1002  
EGNX 280050Z 05008KT 5000 RA SCT003 BKN004 13/13 Q1002  
EGNX 280020Z 05006KT 5000 RA BKN004 13/13 Q1003 
EGNX 272350Z 05006KT 7000 RA BKN004 13/13 Q1003 
EGNX 272320Z 06007KT 8000 -RA BKN005 13/12 Q1003
EGNX 272250Z 07008KT 9999 BKN005 13/12 Q1004
EGNX 272220Z 07008KT 9999 BKN006 13/12 Q1004
EGNX 272150Z 07008KT 9999 BKN008 13/12 Q1004
EGNX 272120Z 08008KT 9999 BKN009 13/12 Q1004
EGNX 272050Z 07007KT 9999 BKN008 13/12 Q1004
EGNX 272020Z 07008KT 9000 BKN008 14/12 Q1004
EGNX 271950Z 07008KT 9000 BKN010 14/12 Q1005
EGNX 271920Z 07009KT 9999 BKN010 14/12 Q1005
EGNX 271850Z 08009KT 9999 BKN011 14/12 Q1005
EGNX 271820Z 08010KT 9999 SCT010 BKN020 15/13 Q1005 
EGNX 271750Z 09010KT 9999 BKN012 15/12 Q1005
EGNX 271720Z 10008KT 9999 BKN012 15/13 Q1005
EGNX 271620Z 10010KT 9999 FEW013 BKN016 16/13 Q1005 
EGNX 271550Z 10011KT 9999 BKN017 16/13 Q1006
EGNX 271450Z 09012KT 9999 BKN018 16/13 Q1006
EGNX 271420Z 11012KT 9999 BKN018 17/13 Q1006
EGNX 271350Z 11011KT 9999 BKN018 16/12 Q1006
EGNX 271320Z 09013KT 9999 BKN015 17/13 Q1007
EGNX 271250Z 09011KT 9999 SCT014 BKN045 16/12 Q1007 
EGNX 271220Z 09013KT 9999 SCT012 BKN045 16/12 Q1007 
EGNX 271150Z 09011KT 9999 SCT011 BKN015 15/12 Q1008 
EGNX 271120Z 11013KT 9999 FEW013 BKN016 15/11 Q1008 
EGNX 271050Z 07011KT 9999 FEW011 BKN047 16/12 Q1008 
EGNX 271020Z 07009KT 9999 FEW011 BKN045 14/12 Q1008 
EGNX 270950Z 07010KT 9999 FEW012 BKN043 14/11 Q1009 
EGNX 270920Z 06008KT 9999 BKN042 14/11 Q1009
EGNX 270850Z 06007KT 030V090 9999 -RA FEW015 BKN042 14/11 Q1009 
EGNX 270820Z 10006KT 050V130 9999 FEW015 BKN043 14/10 Q1009 
EGNX 270750Z 10008KT 9999 FEW015 SCT045 14/10 Q1010 
EGNX 270720Z 10007KT 9999 SCT045 14/11 Q1010
EGNX 270620Z 07007KT 9999 BKN045 12/10 Q1009
EGNX 270550Z 07006KT 9999 BKN046 12/09 Q1010
EGNX 270520Z 10005KT 9999 BKN042 12/09 Q1010
EGNX 270450Z 11008KT 9999 BKN042 12/09 Q1010